Time;durP1;ratioP1;P1;durP2;ratioP2;P2;SDS_P1;SDS_P2;PMS_P1;PMS_P2;Temp;Humidity;BMP_temperature;BMP_pressure;BME280_temperature;BME280_humidity;BME280_pressure;Samples;Min_cycle;Max_cycle;Signal;HPM_P1;HPM_P2
2023/05/18 00:00:00;;;;;;;4.82;2.25;;;;;;;13.03;100.00;97550.97;5053479;28;20587;-62
2023/05/18 00:02:26;;;;;;;3.20;2.10;;;;;;;13.25;100.00;97600.78;5050802;28;20181;-62
2023/05/18 00:04:51;;;;;;;6.13;2.85;;;;;;;12.94;100.00;97547.41;5050894;28;20589;-62
2023/05/18 00:07:17;;;;;;;4.05;2.83;;;;;;;12.88;100.00;97557.53;5050885;28;20557;-62
2023/05/18 00:09:42;;;;;;;4.03;2.50;;;;;;;13.26;100.00;97622.41;5050805;28;20190;-62
2023/05/18 00:12:08;;;;;;;4.90;2.42;;;;;;;13.09;100.00;97589.38;5050781;28;20272;-62
2023/05/18 00:14:34;;;;;;;5.97;3.30;;;;;;;13.15;100.00;97625.16;5050756;28;20268;-62
2023/05/18 00:17:02;;;;;;;4.40;2.90;;;;;;;12.79;100.00;97553.19;5050587;28;20304;-62
2023/05/18 00:19:28;;;;;;;5.95;2.78;;;;;;;13.19;100.00;97629.13;5030793;28;20545;-62
2023/05/18 00:21:54;;;;;;;6.45;2.90;;;;;;;13.06;100.00;97641.59;5030624;28;20190;-62
2023/05/18 00:24:21;;;;;;;5.22;2.70;;;;;;;12.60;100.00;97566.19;5030606;28;20286;-62
2023/05/18 00:26:48;;;;;;;5.50;2.65;;;;;;;12.36;100.00;97561.41;5030581;28;20872;-61
2023/05/18 00:29:14;;;;;;;5.82;3.10;;;;;;;12.34;100.00;97554.72;5030413;28;20798;-62
2023/05/18 00:31:40;;;;;;;9.55;2.90;;;;;;;12.20;100.00;97548.16;5030516;28;20181;-62
2023/05/18 00:34:13;;;;;;;7.38;2.88;;;;;;;12.59;100.00;97598.28;5046075;28;20190;-61
2023/05/18 00:36:39;;;;;;;4.70;3.03;;;;;;;12.72;100.00;97637.75;5050191;28;20232;-62
2023/05/18 00:39:05;;;;;;;5.13;2.85;;;;;;;12.43;100.00;97572.06;5050281;28;20625;-61
2023/05/18 00:41:31;;;;;;;5.93;3.05;;;;;;;12.55;100.00;97615.09;5030194;28;20651;-62
2023/05/18 00:43:57;;;;;;;3.05;2.60;;;;;;;12.46;100.00;97574.38;5030282;28;20195;-62
2023/05/18 00:46:24;;;;;;;8.45;3.67;;;;;;;12.80;100.00;97584.22;5030287;28;20225;-62
2023/05/18 00:48:51;;;;;;;16.52;3.08;;;;;;;12.83;100.00;97589.09;5030258;28;20232;-61
2023/05/18 00:51:19;;;;;;;7.25;2.65;;;;;;;13.12;100.00;97630.66;5046935;28;20231;-62
2023/05/18 00:53:45;;;;;;;6.30;2.95;;;;;;;13.04;100.00;97620.13;5050051;28;20640;-62
2023/05/18 00:56:11;;;;;;;4.22;2.25;;;;;;;12.68;100.00;97577.53;5049377;28;20696;-62
2023/05/18 00:58:38;;;;;;;4.85;2.30;;;;;;;12.80;100.00;97592.00;5049706;28;20194;-61
2023/05/18 01:01:04;;;;;;;8.20;2.05;;;;;;;12.52;100.00;97522.75;5050009;28;20190;-62
2023/05/18 01:03:32;;;;;;;2.90;1.63;;;;;;;13.09;100.00;97589.38;5049931;28;20192;-61
2023/05/18 01:05:57;;;;;;;5.60;2.10;;;;;;;13.01;100.00;97565.88;5049866;28;20276;-61
2023/05/18 01:08:26;;;;;;;2.67;1.88;;;;;;;12.85;100.00;97518.88;5049873;28;20679;-62
2023/05/18 01:11:06;;;;;;;4.70;1.77;;;;;;;13.16;100.00;97590.44;5049906;28;20177;-61
2023/05/18 01:13:56;;;;;;;3.72;1.67;;;;;;;13.20;100.00;97603.03;5031279;28;20212;-61
2023/05/18 01:16:26;;;;;;;3.28;1.60;;;;;;;12.68;100.00;97528.22;5029859;28;20762;-62
2023/05/18 01:19:16;;;;;;;3.63;2.15;;;;;;;13.13;100.00;97590.72;5029981;28;20194;-62
2023/05/18 01:22:02;;;;;;;4.38;2.30;;;;;;;13.28;100.00;97615.28;5029751;28;20778;-61
2023/05/18 01:24:44;;;;;;;5.55;2.38;;;;;;;13.10;100.00;97612.59;5029775;28;20276;-61
2023/05/18 01:27:14;;;;;;;2.92;2.10;;;;;;;13.04;100.00;97605.38;5029718;28;20687;-61
2023/05/18 01:29:41;;;;;;;2.38;1.73;;;;;;;12.76;100.00;97577.66;5029749;28;20211;-61
2023/05/18 01:32:07;;;;;;;4.88;2.22;;;;;;;12.67;100.00;97599.22;5029709;28;20186;-62
2023/05/18 01:34:32;;;;;;;3.45;2.03;;;;;;;12.76;100.00;97607.97;5029719;28;20241;-62
2023/05/18 01:36:57;;;;;;;4.30;3.10;;;;;;;12.67;100.00;97582.84;5029539;28;20234;-62
2023/05/18 01:39:23;;;;;;;6.55;2.80;;;;;;;12.82;100.00;97607.41;5029642;28;20213;-62
2023/05/18 01:42:02;;;;;;;6.30;2.92;;;;;;;12.97;100.00;97619.03;5029680;28;20179;-61
2023/05/18 01:44:32;;;;;;;4.55;2.88;;;;;;;12.71;100.00;97598.00;5029623;28;20628;-62
2023/05/18 01:47:00;;;;;;;8.55;2.70;;;;;;;12.89;100.00;97635.28;5029539;28;20301;-62
2023/05/18 01:49:32;;;;;;;9.05;3.10;;;;;;;12.95;100.00;97633.94;5029411;28;20195;-62
2023/05/18 01:52:03;;;;;;;8.32;2.88;;;;;;;12.58;100.00;97592.28;5066174;28;20735;-62
2023/05/18 01:54:30;;;;;;;5.10;3.35;;;;;;;12.26;100.00;97560.59;5069465;28;20193;-62
2023/05/18 01:56:57;;;;;;;4.30;3.10;;;;;;;12.10;100.00;97528.38;5069355;28;20193;-62
2023/05/18 01:59:24;;;;;;;10.10;3.20;;;;;;;12.77;100.00;97648.56;5069260;28;20357;-62
2023/05/18 02:01:50;;;;;;;5.60;2.72;;;;;;;12.13;100.00;97556.63;5069394;28;20201;-62
2023/05/18 02:04:15;;;;;;;6.85;3.08;;;;;;;12.56;100.00;97635.72;5069324;28;20236;-62
2023/05/18 02:06:40;;;;;;;6.13;3.35;;;;;;;12.41;100.00;97597.31;5069360;28;20181;-62
2023/05/18 02:09:06;;;;;;;7.50;3.20;;;;;;;12.68;100.00;97633.78;5072094;28;20197;-63
2023/05/18 02:11:31;;;;;;;8.73;3.22;;;;;;;12.57;100.00;97603.63;5073052;28;20177;-61
2023/05/18 02:13:57;;;;;;;6.50;3.20;;;;;;;12.58;100.00;97600.06;5072988;28;20180;-61
2023/05/18 02:16:22;;;;;;;5.53;3.30;;;;;;;12.44;100.00;97581.50;5072843;28;20280;-61
2023/05/18 02:18:48;;;;;;;5.30;3.22;;;;;;;12.68;100.00;97636.38;5072903;28;20219;-61
2023/05/18 02:21:13;;;;;;;7.40;3.38;;;;;;;12.69;100.00;97644.03;5057799;28;20229;-61
2023/05/18 02:23:40;;;;;;;7.97;3.63;;;;;;;12.66;100.00;97636.50;5055259;28;20207;-61
2023/05/18 02:26:05;;;;;;;7.80;3.85;;;;;;;12.96;100.00;97671.94;5055184;28;20181;-61
2023/05/18 02:28:31;;;;;;;8.90;3.75;;;;;;;12.53;100.00;97599.66;5055108;28;20323;-61
2023/05/18 02:31:13;;;;;;;5.38;3.60;;;;;;;12.57;100.00;97595.00;5055148;28;20786;-61
2023/05/18 02:33:39;;;;;;;6.20;3.72;;;;;;;13.06;100.00;97670.16;5052633;28;20277;-61
2023/05/18 02:36:09;;;;;;;8.40;4.13;;;;;;;13.06;100.00;97683.16;5052559;28;20197;-61
2023/05/18 02:38:38;;;;;;;11.48;3.92;;;;;;;12.90;100.00;97683.66;5052549;28;20189;-61
2023/05/18 02:41:04;;;;;;;5.15;3.60;;;;;;;12.77;100.00;97653.75;5012666;28;20191;-61
2023/05/18 02:43:30;;;;;;;5.28;3.90;;;;;;;12.74;100.00;97641.03;5012759;28;20216;-61
2023/05/18 02:45:55;;;;;;;5.75;4.00;;;;;;;12.79;100.00;97655.25;5012732;28;20195;-61
2023/05/18 02:48:21;;;;;;;4.32;3.67;;;;;;;13.12;100.00;97698.19;5012727;28;20219;-61
2023/05/18 02:50:49;;;;;;;8.65;4.82;;;;;;;13.00;100.00;97678.50;5012655;28;20366;-61
2023/05/18 02:53:15;;;;;;;7.68;3.90;;;;;;;12.66;100.00;97613.16;5012486;28;20265;-61
2023/05/18 02:55:40;;;;;;;6.45;3.88;;;;;;;13.09;100.00;97696.69;5012456;28;20179;-61
2023/05/18 02:58:06;;;;;;;6.07;4.10;;;;;;;12.81;100.00;97655.09;5012726;28;20210;-61
2023/05/18 03:00:32;;;;;;;4.95;3.15;;;;;;;13.07;100.00;97689.97;5012311;28;20578;-61
2023/05/18 03:02:59;;;;;;;5.03;3.08;;;;;;;13.21;100.00;97699.94;5012379;28;20194;-61
2023/05/18 03:05:25;;;;;;;5.28;2.70;;;;;;;13.14;100.00;97681.50;5029055;28;20189;-61
2023/05/18 03:07:51;;;;;;;9.00;2.78;;;;;;;12.84;100.00;97627.09;5032065;28;20214;-61
2023/05/18 03:10:18;;;;;;;12.63;3.60;;;;;;;13.04;100.00;97674.66;5032322;28;20268;-61
2023/05/18 03:12:44;;;;;;;7.40;2.67;;;;;;;13.09;100.00;97688.06;5032039;28;20333;-61
2023/05/18 03:15:10;;;;;;;3.60;2.20;;;;;;;12.89;100.00;97656.06;5031986;28;20269;-61
2023/05/18 03:17:36;;;;;;;3.35;1.70;;;;;;;12.86;100.00;97684.91;5034786;28;20221;-61
2023/05/18 03:20:03;;;;;;;5.45;2.00;;;;;;;13.06;100.00;97724.72;5053747;28;20177;-61
2023/05/18 03:22:28;;;;;;;5.53;2.15;;;;;;;12.48;100.00;97637.34;5054097;28;20235;-62
2023/05/18 03:24:54;;;;;;;4.93;2.38;;;;;;;12.61;100.00;97646.47;5053741;28;20260;-62
2023/05/18 03:27:24;;;;;;;6.22;2.60;;;;;;;13.14;100.00;97722.22;5054002;28;20261;-63
2023/05/18 03:29:51;;;;;;;5.68;2.50;;;;;;;12.95;100.00;97683.25;5054136;28;20196;-62
2023/05/18 03:32:20;;;;;;;5.00;2.45;;;;;;;13.04;100.00;97683.28;5053832;28;20279;-62
2023/05/18 03:34:46;;;;;;;4.78;2.00;;;;;;;12.81;100.00;97639.53;5053786;28;20181;-62
2023/05/18 03:37:15;;;;;;;5.03;2.40;;;;;;;13.07;100.00;97697.78;5053663;28;20197;-62
2023/05/18 03:39:41;;;;;;;3.00;2.53;;;;;;;13.01;100.00;97717.31;5053473;28;20538;-62
2023/05/18 03:42:06;;;;;;;4.75;1.90;;;;;;;12.96;100.00;97703.91;5053962;28;20188;-62
2023/05/18 03:44:31;;;;;;;4.82;2.53;;;;;;;12.90;100.00;97685.44;5053624;28;20235;-62
2023/05/18 03:46:57;;;;;;;6.60;2.55;;;;;;;13.07;100.00;97721.94;5053870;28;20189;-63
2023/05/18 03:49:22;;;;;;;5.25;1.90;;;;;;;13.00;100.00;97686.31;5053594;28;20177;-62
2023/05/18 03:51:48;;;;;;;3.13;2.03;;;;;;;12.84;100.00;97670.41;5053693;28;20551;-62
2023/05/18 03:54:13;;;;;;;4.40;2.13;;;;;;;13.12;100.00;97718.97;5053421;28;20249;-62
2023/05/18 03:56:38;;;;;;;5.03;2.25;;;;;;;13.18;100.00;97718.41;5053305;28;20198;-63
2023/05/18 03:59:05;;;;;;;2.90;2.67;;;;;;;12.98;100.00;97685.59;5053314;28;20195;-63
2023/05/18 04:01:31;;;;;;;4.60;2.95;;;;;;;12.95;100.00;97691.88;5053294;28;20181;-62
2023/05/18 04:03:57;;;;;;;6.82;2.50;;;;;;;12.75;100.00;97653.06;5053236;28;20174;-63
2023/05/18 04:06:24;;;;;;;7.05;2.67;;;;;;;13.23;100.00;97734.38;5053241;28;20204;-63
2023/05/18 04:08:53;;;;;;;6.07;2.70;;;;;;;12.98;100.00;97664.81;5053221;28;20264;-63
2023/05/18 04:11:20;;;;;;;7.78;3.00;;;;;;;13.46;100.00;97744.34;5053157;28;20640;-63
2023/05/18 04:13:46;;;;;;;8.32;2.75;;;;;;;12.93;100.00;97682.56;5053166;28;20682;-62
2023/05/18 04:16:12;;;;;;;8.38;3.20;;;;;;;13.35;100.00;97747.09;5053076;28;20221;-62
2023/05/18 04:18:39;;;;;;;2.45;2.13;;;;;;;13.24;100.00;97718.66;5053029;28;20184;-62
2023/05/18 04:21:05;;;;;;;3.75;2.13;;;;;;;13.39;100.00;97761.47;5052710;28;20731;-62
2023/05/18 04:23:32;;;;;;;8.15;2.42;;;;;;;13.03;100.00;97699.00;5052963;28;20663;-62
2023/05/18 04:25:58;;;;;;;7.15;2.40;;;;;;;13.30;100.00;97758.88;5052892;28;20184;-62
2023/05/18 04:28:24;;;;;;;4.90;2.53;;;;;;;12.98;100.00;97706.38;5052875;28;20667;-62
2023/05/18 04:30:50;;;;;;;6.35;3.15;;;;;;;12.85;100.00;97685.88;5052409;28;20182;-62
2023/05/18 04:33:16;;;;;;;7.07;3.10;;;;;;;13.43;100.00;97775.00;5052356;28;20213;-62
2023/05/18 04:35:42;;;;;;;7.43;2.33;;;;;;;13.28;100.00;97760.78;5052695;28;20178;-62
2023/05/18 04:38:09;;;;;;;9.43;3.28;;;;;;;13.16;100.00;97738.50;5052767;28;20169;-62
2023/05/18 04:40:36;;;;;;;5.22;2.58;;;;;;;12.94;100.00;97689.38;5052711;28;20232;-63
2023/05/18 04:43:02;;;;;;;3.67;2.72;;;;;;;13.51;100.00;97775.13;5052667;28;20178;-62
2023/05/18 04:45:28;;;;;;;3.85;2.55;;;;;;;12.99;100.00;97693.25;5052588;28;20636;-62
2023/05/18 04:47:54;;;;;;;5.10;2.55;;;;;;;13.54;100.00;97762.66;5052294;28;20185;-62
2023/05/18 04:50:22;;;;;;;3.30;3.00;;;;;;;13.57;100.00;97762.41;5052532;28;20178;-63
2023/05/18 04:52:51;;;;;;;6.15;2.88;;;;;;;13.50;100.00;97747.50;5052663;28;20189;-63
2023/05/18 04:55:24;;;;;;;7.32;2.65;;;;;;;13.24;100.00;97691.88;5052437;28;20664;-63
2023/05/18 04:57:52;;;;;;;9.10;3.35;;;;;;;13.66;100.00;97764.16;5052307;28;20201;-63
2023/05/18 05:00:19;;;;;;;7.82;3.33;;;;;;;13.77;100.00;97776.19;5051048;28;20189;-62
2023/05/18 05:02:44;;;;;;;3.78;2.67;;;;;;;13.86;100.00;97796.13;5052383;28;20216;-63
2023/05/18 05:05:10;;;;;;;7.35;3.30;;;;;;;13.40;100.00;97712.91;5052064;28;20624;-63
2023/05/18 05:07:36;;;;;;;8.13;2.72;;;;;;;13.37;100.00;97713.19;5052075;28;20184;-62
2023/05/18 05:10:02;;;;;;;8.10;2.50;;;;;;;13.46;100.00;97741.75;5052056;28;20235;-62
2023/05/18 05:12:27;;;;;;;3.97;2.42;;;;;;;13.43;100.00;97729.06;5051920;28;20181;-62
2023/05/18 05:14:53;;;;;;;8.27;2.50;;;;;;;13.89;100.00;97801.88;5051965;28;20693;-63
2023/05/18 05:17:19;;;;;;;8.23;2.30;;;;;;;13.89;100.00;97814.06;5051911;28;20189;-63
2023/05/18 05:19:44;;;;;;;3.30;2.20;;;;;;;13.78;100.00;97802.06;5051932;28;20178;-62
2023/05/18 05:22:10;;;;;;;2.75;2.20;;;;;;;13.78;100.00;97814.22;5051901;28;20173;-62
2023/05/18 05:24:35;;;;;;;4.00;3.15;;;;;;;13.26;100.00;97726.31;5052152;28;20311;-63
2023/05/18 05:27:01;;;;;;;5.88;3.75;;;;;;;13.40;100.00;97754.47;5051878;28;20174;-62
2023/05/18 05:29:26;;;;;;;8.00;2.67;;;;;;;13.71;100.00;97815.75;5051855;28;20226;-62
2023/05/18 05:31:53;;;;;;;3.47;2.25;;;;;;;13.74;100.00;97805.88;5051690;28;20173;-62
2023/05/18 05:34:19;;;;;;;5.00;2.25;;;;;;;13.22;100.00;97733.59;5051907;28;20633;-62
2023/05/18 05:36:44;;;;;;;7.15;3.28;;;;;;;13.48;100.00;97793.59;5051924;28;20198;-62
2023/05/18 05:39:10;;;;;;;4.63;2.90;;;;;;;13.60;100.00;97815.88;5051603;28;20170;-62
2023/05/18 05:41:37;;;;;;;7.00;3.60;;;;;;;13.60;100.00;97823.69;5051860;28;20209;-62
2023/05/18 05:44:02;;;;;;;5.85;2.85;;;;;;;13.45;100.00;97783.47;5052236;28;20672;-62
2023/05/18 05:46:27;;;;;;;3.95;2.83;;;;;;;13.63;100.00;97826.81;5053515;28;20201;-62
2023/05/18 05:48:53;;;;;;;8.23;2.70;;;;;;;13.26;100.00;97773.09;5053536;28;20185;-62
2023/05/18 05:51:18;;;;;;;3.15;2.42;;;;;;;13.54;100.00;97824.25;5053524;28;20181;-62
2023/05/18 05:53:46;;;;;;;6.03;3.15;;;;;;;13.07;100.00;97767.91;5053431;28;20190;-62
2023/05/18 05:56:12;;;;;;;4.00;2.67;;;;;;;13.44;100.00;97818.22;5053229;28;20201;-62
2023/05/18 05:58:37;;;;;;;5.60;3.00;;;;;;;13.07;100.00;97786.88;5052953;28;20201;-62
2023/05/18 06:01:03;;;;;;;5.07;3.17;;;;;;;13.04;100.00;97794.97;5053375;28;20174;-62
2023/05/18 06:03:30;;;;;;;7.57;2.83;;;;;;;13.03;100.00;97776.91;5053081;28;20197;-62
2023/05/18 06:05:56;;;;;;;5.18;2.40;;;;;;;13.54;100.00;97851.03;5053142;28;20730;-62
2023/05/18 06:08:23;;;;;;;8.15;3.58;;;;;;;13.67;100.00;97869.81;5053129;28;20278;-62
2023/05/18 06:10:48;;;;;;;5.72;4.60;;;;;;;13.20;100.00;97781.44;5053080;28;20282;-62
2023/05/18 06:13:15;;;;;;;5.68;4.50;;;;;;;13.68;100.00;97862.81;5053111;28;20228;-62
2023/05/18 06:15:40;;;;;;;6.75;5.05;;;;;;;13.18;100.00;97788.56;5068070;28;20211;-62
2023/05/18 06:18:05;;;;;;;8.15;3.85;;;;;;;13.17;100.00;97799.88;5072231;28;20300;-62
2023/05/18 06:20:31;;;;;;;5.28;3.83;;;;;;;13.21;100.00;97796.06;5072908;28;20173;-62
2023/05/18 06:22:56;;;;;;;5.55;3.80;;;;;;;13.68;100.00;97879.22;5072775;28;20193;-62
2023/05/18 06:25:23;;;;;;;4.70;4.20;;;;;;;13.09;100.00;97818.75;5072810;28;20197;-62
2023/05/18 06:27:48;;;;;;;5.80;4.55;;;;;;;13.32;100.00;97840.09;5072741;28;20740;-62
2023/05/18 06:30:14;;;;;;;5.85;5.45;;;;;;;13.59;100.00;97880.03;5072693;28;20180;-62
2023/05/18 06:32:39;;;;;;;9.38;5.30;;;;;;;13.38;100.00;97849.94;5072794;28;20588;-62
2023/05/18 06:35:06;;;;;;;5.68;4.97;;;;;;;13.55;100.00;97880.47;5058994;28;20247;-62
2023/05/18 06:37:31;;;;;;;4.93;4.43;;;;;;;13.65;100.00;97883.88;5054919;28;20910;-62
2023/05/18 06:39:57;;;;;;;5.70;4.50;;;;;;;13.50;100.00;97854.06;5054930;28;20235;-62
2023/05/18 06:42:23;;;;;;;6.78;5.47;;;;;;;13.33;100.00;97821.78;5054926;28;20231;-62
2023/05/18 06:44:49;;;;;;;8.63;6.85;;;;;;;13.84;100.00;97889.09;5054593;28;20177;-62
2023/05/18 06:47:15;;;;;;;9.15;5.70;;;;;;;13.96;100.00;97906.19;5054577;28;20201;-62
2023/05/18 06:49:40;;;;;;;8.18;6.38;;;;;;;14.00;100.00;97910.16;5054778;28;20632;-62
2023/05/18 06:52:07;;;;;;;6.78;6.13;;;;;;;14.05;100.00;97910.56;5054712;28;20261;-62
2023/05/18 06:54:33;;;;;;;11.60;6.40;;;;;;;13.63;100.00;97839.81;5053635;28;20630;-62
2023/05/18 06:56:58;;;;;;;7.40;6.07;;;;;;;14.17;100.00;97918.06;5054651;28;20280;-62
2023/05/18 06:59:23;;;;;;;9.55;6.80;;;;;;;13.76;100.00;97845.56;5054280;28;20236;-62
2023/05/18 07:01:49;;;;;;;10.52;7.07;;;;;;;14.16;100.00;97921.63;5054463;28;20182;-62
2023/05/18 07:04:15;;;;;;;9.45;7.10;;;;;;;13.92;100.00;97858.00;5054458;28;20176;-62
2023/05/18 07:06:40;;;;;;;10.57;7.35;;;;;;;14.38;100.00;97923.97;5054418;28;20636;-62
2023/05/18 07:09:07;;;;;;;12.63;7.50;;;;;;;14.53;100.00;97937.34;5054377;28;20173;-62
2023/05/18 07:11:33;;;;;;;7.00;5.65;;;;;;;14.09;100.00;97860.72;5054319;28;20181;-62
2023/05/18 07:13:58;;;;;;;10.20;6.15;;;;;;;14.43;100.00;97902.72;5053928;28;20178;-62
2023/05/18 07:16:26;;;;;;;8.10;5.78;;;;;;;14.46;100.00;97928.47;5053841;28;20277;-62
2023/05/18 07:18:51;;;;;;;10.63;6.03;;;;;;;14.27;100.00;97898.09;5054121;28;20173;-62
2023/05/18 07:21:17;;;;;;;8.30;5.47;;;;;;;14.11;100.00;97866.59;5054111;28;20636;-62
2023/05/18 07:23:42;;;;;;;7.57;4.72;;;;;;;14.54;100.00;97957.22;5054340;28;20170;-62
2023/05/18 07:26:10;;;;;;;5.60;4.65;;;;;;;14.21;100.00;97903.03;5071805;28;20713;-62
2023/05/18 07:28:36;;;;;;;5.97;4.85;;;;;;;14.41;100.00;97947.09;5071626;28;20287;-62
2023/05/18 07:31:02;;;;;;;9.20;4.97;;;;;;;14.05;100.00;97887.16;5071555;28;20185;-62
2023/05/18 07:33:28;;;;;;;5.45;3.70;;;;;;;13.88;100.00;97875.66;5071503;28;20188;-62
2023/05/18 07:35:53;;;;;;;7.35;4.45;;;;;;;13.91;100.00;97882.38;5071400;28;20707;-62
2023/05/18 07:38:19;;;;;;;6.38;4.70;;;;;;;13.97;100.00;97900.00;5071385;28;20277;-62
2023/05/18 07:40:44;;;;;;;6.75;4.40;;;;;;;13.92;100.00;97881.41;5071386;28;20725;-62
2023/05/18 07:43:10;;;;;;;7.35;4.65;;;;;;;14.10;100.00;97919.59;5071333;28;20181;-62
2023/05/18 07:45:36;;;;;;;6.72;4.22;;;;;;;14.30;100.00;97960.25;5071282;28;20189;-62
2023/05/18 07:48:01;;;;;;;7.88;4.78;;;;;;;13.85;100.00;97880.31;5071243;28;20177;-63
2023/05/18 07:50:28;;;;;;;4.15;3.75;;;;;;;13.83;100.00;97910.84;5071145;28;20211;-62
2023/05/18 07:52:54;;;;;;;5.55;3.55;;;;;;;13.92;100.00;97923.00;5069574;28;20219;-62
2023/05/18 07:55:19;;;;;;;5.47;3.95;;;;;;;14.12;100.00;97955.88;5070659;28;20260;-62
2023/05/18 07:57:45;;;;;;;4.85;3.28;;;;;;;13.77;100.00;97882.78;5057269;28;20225;-62
2023/05/18 08:00:11;;;;;;;6.72;3.38;;;;;;;14.07;100.00;97913.84;5053543;28;20194;-62
2023/05/18 08:02:37;;;;;;;5.60;3.10;;;;;;;14.12;100.00;97914.25;5052548;28;20178;-62
2023/05/18 08:05:03;;;;;;;6.53;4.75;;;;;;;14.10;100.00;97919.59;5053337;28;20180;-62
2023/05/18 08:07:29;;;;;;;10.63;4.55;;;;;;;14.14;100.00;97933.13;5053058;28;20546;-62
2023/05/18 08:09:55;;;;;;;4.50;4.10;;;;;;;14.10;100.00;97918.75;5053490;28;20722;-62
2023/05/18 08:12:22;;;;;;;3.13;2.92;;;;;;;14.28;100.00;97945.78;5053171;28;20174;-62
2023/05/18 08:14:47;;;;;;;4.78;3.05;;;;;;;14.36;100.00;97945.88;5053122;28;20559;-62
2023/05/18 08:17:13;;;;;;;4.38;3.28;;;;;;;14.13;100.00;97910.69;5052703;28;20200;-62
2023/05/18 08:19:38;;;;;;;2.50;2.30;;;;;;;14.48;100.00;97945.59;5053004;28;20666;-62
2023/05/18 08:22:03;;;;;;;3.20;2.83;;;;;;;14.36;100.00;97906.84;5052996;28;20176;-62
2023/05/18 08:24:29;;;;;;;5.35;3.60;;;;;;;14.75;100.00;97996.94;5053208;28;20181;-62
2023/05/18 08:26:56;;;;;;;7.53;2.97;;;;;;;14.43;100.00;97933.94;5052968;28;20520;-62
2023/05/18 08:29:21;;;;;;;4.00;2.55;;;;;;;14.74;100.00;98000.47;5052873;28;20181;-62
2023/05/18 08:31:47;;;;;;;2.83;2.60;;;;;;;14.47;100.00;97936.13;5052889;28;20633;-63
2023/05/18 08:34:12;;;;;;;3.05;2.85;;;;;;;14.95;100.00;98001.09;5052554;28;20261;-63
2023/05/18 08:36:38;;;;;;;7.18;2.47;;;;;;;14.83;100.00;97984.84;5052460;28;20189;-63
2023/05/18 08:39:04;;;;;;;3.45;2.50;;;;;;;14.49;100.00;97909.94;5052445;28;20174;-63
2023/05/18 08:41:34;;;;;;;6.20;3.40;;;;;;;14.91;100.00;97963.25;5052669;28;20269;-62
2023/05/18 08:44:14;;;;;;;8.73;4.90;;;;;;;14.99;100.00;97958.97;5052692;28;20185;-62
2023/05/18 08:46:41;;;;;;;12.68;5.85;;;;;;;15.03;100.00;97943.88;5052618;28;20252;-63
2023/05/18 08:49:08;;;;;;;6.95;3.13;;;;;;;15.42;100.00;98002.72;5052591;28;20260;-63
2023/05/18 08:51:36;;;;;;;7.85;4.22;;;;;;;15.30;100.00;97977.78;5052493;28;20251;-63
2023/05/18 08:54:03;;;;;;;9.00;3.78;;;;;;;15.28;100.00;97964.09;5052156;28;20576;-62
2023/05/18 08:56:32;;;;;;;5.43;3.88;;;;;;;15.70;100.00;98014.81;5052338;28;20189;-62
2023/05/18 08:58:59;;;;;;;11.00;4.90;;;;;;;15.86;100.00;98033.25;5052296;28;20284;-62
2023/05/18 09:01:27;;;;;;;8.55;4.68;;;;;;;15.75;100.00;98009.97;5052439;28;20256;-63
2023/05/18 09:03:55;;;;;;;6.07;4.25;;;;;;;15.93;100.00;98035.09;5052348;28;20264;-63
2023/05/18 09:06:23;;;;;;;6.68;3.72;;;;;;;15.46;100.00;97970.19;5052406;28;20177;-62
2023/05/18 09:08:51;;;;;;;3.80;3.38;;;;;;;15.45;100.00;97976.38;5051969;28;20560;-62
2023/05/18 09:11:17;;;;;;;3.08;2.88;;;;;;;15.87;100.00;98051.34;5052276;28;20184;-62
2023/05/18 09:13:43;;;;;;;3.20;2.78;;;;;;;15.65;100.00;98030.06;5052210;28;20173;-62
2023/05/18 09:16:08;;;;;;;4.18;3.05;;;;;;;15.76;100.00;98045.50;5052180;28;20174;-62
2023/05/18 09:18:34;;;;;;;4.80;3.40;;;;;;;15.59;100.00;98008.00;5051583;28;20170;-62
2023/05/18 09:21:00;;;;;;;4.00;3.70;;;;;;;15.51;100.00;97981.00;5052384;28;20215;-63
2023/05/18 09:23:25;;;;;;;4.38;3.10;;;;;;;15.63;100.00;97979.84;5052388;28;20170;-63
2023/05/18 09:25:51;;;;;;;6.50;3.22;;;;;;;16.25;100.00;98060.69;5052093;28;20205;-63
2023/05/18 09:28:34;;;;;;;5.40;2.40;;;;;;;16.15;100.00;98016.41;5052033;28;20705;-63
2023/05/18 09:30:59;;;;;;;2.97;2.60;;;;;;;16.40;100.00;98031.38;5052082;28;20158;-63
2023/05/18 09:33:31;;;;;;;5.72;2.42;;;;;;;16.51;100.00;98031.09;5051987;28;20636;-62
2023/05/18 09:35:56;;;;;;;2.78;2.25;;;;;;;16.54;100.00;98035.22;5051993;28;20169;-62
2023/05/18 09:38:22;;;;;;;3.40;2.65;;;;;;;16.72;100.00;98043.84;5052029;28;20176;-62
2023/05/18 09:40:49;;;;;;;3.28;2.28;;;;;;;16.70;100.00;98009.22;5051938;28;20184;-63
2023/05/18 09:43:17;;;;;;;3.80;2.88;;;;;;;16.93;100.00;98032.09;5051929;28;20648;-62
2023/05/18 09:45:45;;;;;;;2.20;2.10;;;;;;;16.89;100.00;98014.25;5051908;28;20180;-63
2023/05/18 09:48:13;;;;;;;2.50;1.75;;;;;;;17.44;100.00;98094.03;5051905;28;20174;-63
2023/05/18 09:50:38;;;;;;;5.47;2.60;;;;;;;17.56;100.00;98092.78;5052152;28;20181;-62
2023/05/18 09:53:08;;;;;;;6.07;2.75;;;;;;;17.29;100.00;98041.47;5049368;28;20291;-63
2023/05/18 09:55:38;;;;;;;2.50;2.30;;;;;;;17.59;100.00;98076.78;5049453;28;20671;-63
2023/05/18 09:58:06;;;;;;;7.63;3.35;;;;;;;17.29;100.00;98011.84;5049454;28;20213;-63
2023/05/18 10:00:35;;;;;;;3.33;2.00;;;;;;;17.28;100.00;98031.16;5049341;28;20199;-63
2023/05/18 10:03:02;;;;;;;3.35;1.92;;;;;;;17.49;100.00;98068.25;5049351;28;20226;-63
2023/05/18 10:05:32;;;;;;;4.32;2.63;;;;;;;17.71;100.00;98107.75;5049368;28;20254;-63
2023/05/18 10:07:59;;;;;;;2.25;2.05;;;;;;;17.69;100.00;98086.16;5049308;28;20276;-63
2023/05/18 10:10:26;;;;;;;7.70;2.30;;;;;;;17.58;93.88;98059.44;5049340;28;20243;-63
2023/05/18 10:12:54;;;;;;;3.80;2.03;;;;;;;17.86;95.53;98116.66;5049282;28;20182;-63
2023/05/18 10:15:21;;;;;;;2.63;1.92;;;;;;;17.70;93.28;98079.94;5049301;28;20304;-63
2023/05/18 10:17:49;;;;;;;3.45;1.90;;;;;;;17.61;100.00;98075.63;5049192;28;20891;-63
2023/05/18 10:20:18;;;;;;;1.90;1.80;;;;;;;17.75;100.00;98110.88;5049208;28;20181;-63
2023/05/18 10:22:46;;;;;;;1.80;1.70;;;;;;;17.64;100.00;98074.50;5049200;28;20311;-63
2023/05/18 10:25:25;;;;;;;2.20;1.63;;;;;;;17.79;100.00;98083.41;5051203;28;20192;-63
2023/05/18 10:27:56;;;;;;;2.55;1.60;;;;;;;18.05;92.90;98121.63;5051593;28;20631;-63
2023/05/18 10:30:21;;;;;;;1.75;1.65;;;;;;;18.10;92.59;98118.53;5054648;28;20169;-63
2023/05/18 10:32:48;;;;;;;4.68;2.25;;;;;;;17.88;100.00;98092.91;5055149;28;20768;-63
2023/05/18 10:35:17;;;;;;;3.13;1.77;;;;;;;17.64;100.00;98058.81;5054757;28;20627;-63
2023/05/18 10:37:48;;;;;;;3.03;2.17;;;;;;;17.70;100.00;98048.53;5054932;28;20244;-63
2023/05/18 10:40:16;;;;;;;7.97;2.25;;;;;;;17.86;91.02;98079.19;5054964;28;20173;-63
2023/05/18 10:42:42;;;;;;;2.53;2.05;;;;;;;17.93;91.91;98085.41;5054972;28;20169;-63
2023/05/18 10:45:09;;;;;;;2.83;1.95;;;;;;;17.86;93.94;98076.56;5054887;28;20180;-63
2023/05/18 10:47:38;;;;;;;11.80;1.95;;;;;;;18.06;83.09;98111.97;5054553;28;20177;-63
2023/05/18 10:50:05;;;;;;;11.77;7.57;;;;;;;17.87;84.53;98086.88;5054505;28;20703;-63
2023/05/18 10:52:36;;;;;;;26.85;19.05;;;;;;;17.72;91.80;98067.50;5054750;28;20183;-62
2023/05/18 10:55:03;;;;;;;5.90;1.75;;;;;;;18.02;84.67;98127.19;5054788;28;20169;-62
2023/05/18 10:57:33;;;;;;;4.60;1.70;;;;;;;17.94;86.40;98124.53;5054491;28;20288;-62
2023/05/18 10:59:59;;;;;;;2.03;1.80;;;;;;;17.88;84.27;98125.16;5054692;28;20185;-63
2023/05/18 11:02:26;;;;;;;3.63;1.60;;;;;;;17.80;84.80;98106.81;5054593;28;20601;-63
2023/05/18 11:04:53;;;;;;;5.40;2.00;;;;;;;17.49;97.67;98055.16;5054495;28;20185;-63
2023/05/18 11:07:19;;;;;;;7.07;4.10;;;;;;;17.35;88.55;98053.06;5054449;28;20169;-63
2023/05/18 11:09:47;;;;;;;2.22;2.03;;;;;;;17.72;83.68;98092.88;5054313;28;20181;-63
2023/05/18 11:12:14;;;;;;;2.53;1.90;;;;;;;17.62;81.44;98098.25;5054340;28;20165;-63
2023/05/18 11:14:51;;;;;;;3.97;1.90;;;;;;;17.31;82.13;98051.78;5054309;28;20181;-63
2023/05/18 11:17:24;;;;;;;2.50;1.83;;;;;;;17.31;86.56;98052.56;5054221;28;20190;-63
2023/05/18 11:20:05;;;;;;;3.50;2.03;;;;;;;17.71;100.00;98130.47;5053982;28;20612;-62
2023/05/18 11:22:51;;;;;;;1.65;1.55;;;;;;;17.62;100.00;98123.56;5053940;28;20183;-62